createdAt,value
2023-03-01T00:01:43.132Z,7.70
2023-03-01T00:04:28.859Z,7.80
2023-03-01T00:07:14.444Z,7.70
2023-03-01T00:10:00.188Z,7.60
2023-03-01T00:12:46.137Z,7.40
2023-03-01T00:15:31.920Z,7.50
2023-03-01T00:18:18.119Z,7.50
2023-03-01T00:21:03.618Z,7.50
2023-03-01T00:23:50.702Z,7.40
2023-03-01T00:26:36.986Z,7.40
2023-03-01T00:29:23.695Z,7.40
2023-03-01T00:32:09.792Z,7.50
2023-03-01T00:34:55.446Z,7.50
2023-03-01T00:37:42.744Z,7.30
2023-03-01T00:40:29.599Z,6.40
2023-03-01T00:43:15.383Z,5.70
2023-03-01T00:46:02.331Z,6.90
2023-03-01T00:48:48.203Z,7.10
2023-03-01T00:51:34.842Z,7.10
2023-03-01T00:54:20.705Z,6.40
2023-03-01T00:57:06.921Z,6.30
2023-03-01T00:59:53.332Z,6.00
2023-03-01T01:02:39.245Z,5.60
2023-03-01T01:05:26.190Z,5.90
2023-03-01T01:08:14.056Z,6.00
2023-03-01T01:10:59.633Z,6.30
2023-03-01T01:13:46.203Z,6.20
2023-03-01T01:16:32.391Z,6.40
2023-03-01T01:19:18.340Z,6.50
2023-03-01T01:22:04.602Z,6.50
2023-03-01T01:24:51.060Z,6.60
2023-03-01T01:27:36.958Z,6.70
2023-03-01T01:30:22.653Z,6.50
2023-03-01T01:33:08.201Z,6.10
2023-03-01T01:35:54.608Z,6.00
2023-03-01T01:38:40.258Z,5.80
2023-03-01T01:41:26.728Z,5.70
2023-03-01T01:44:14.593Z,5.50
2023-03-01T01:47:02.914Z,5.70
2023-03-01T01:49:52.132Z,5.20
2023-03-01T01:52:39.099Z,6.10
2023-03-01T01:55:28.720Z,5.90
2023-03-01T01:58:16.736Z,6.00
2023-03-01T02:01:02.923Z,6.30
2023-03-01T02:03:49.319Z,6.50
2023-03-01T02:06:39.082Z,6.60
2023-03-01T02:09:24.827Z,6.60
2023-03-01T02:12:10.529Z,6.60
2023-03-01T02:14:56.150Z,6.70
2023-03-01T02:17:41.797Z,6.70
2023-03-01T02:20:30.513Z,6.80
2023-03-01T02:23:17.807Z,6.80
2023-03-01T02:26:10.065Z,6.70
2023-03-01T02:28:56.265Z,6.70
2023-03-01T02:31:44.630Z,6.70
2023-03-01T02:34:32.223Z,6.70
2023-03-01T02:37:25.778Z,6.60
2023-03-01T02:40:16.614Z,6.60
2023-03-01T02:43:05.785Z,5.10
2023-03-01T02:45:53.883Z,7.80
2023-03-01T02:48:43.867Z,6.40
2023-03-01T02:51:29.391Z,6.40
2023-03-01T02:54:21.184Z,6.00
2023-03-01T02:57:08.458Z,5.70
2023-03-01T02:59:55.663Z,5.70
2023-03-01T03:02:41.456Z,6.20
2023-03-01T03:05:36.014Z,6.40
2023-03-01T03:08:25.429Z,6.50
2023-03-01T03:11:12.403Z,6.70
2023-03-01T03:13:58.990Z,6.00
2023-03-01T03:16:46.399Z,6.00
2023-03-01T03:19:31.843Z,6.30
2023-03-01T03:22:17.343Z,6.50
2023-03-01T03:25:03.303Z,6.70
2023-03-01T03:27:50.292Z,6.60
2023-03-01T03:30:37.020Z,6.50
2023-03-01T03:33:23.110Z,6.70
2023-03-01T03:36:14.019Z,6.60
2023-03-01T03:39:00.321Z,6.60
2023-03-01T03:41:46.326Z,6.60
2023-03-01T03:44:32.268Z,6.50
2023-03-01T03:47:18.664Z,6.10
2023-03-01T03:50:04.478Z,6.30
2023-03-01T03:52:50.129Z,6.30
2023-03-01T03:55:36.021Z,6.60
2023-03-01T03:58:23.127Z,6.60
2023-03-01T04:01:08.730Z,6.80
2023-03-01T04:03:55.493Z,6.50
2023-03-01T04:06:41.865Z,6.50
2023-03-01T04:09:28.782Z,6.20
2023-03-01T04:12:14.479Z,6.50
2023-03-01T04:15:01.509Z,6.50
2023-03-01T04:17:47.748Z,6.60
2023-03-01T04:20:36.015Z,6.70
2023-03-01T04:23:21.969Z,6.50
2023-03-01T04:26:07.866Z,6.40
2023-03-01T04:28:53.877Z,6.20
2023-03-01T04:31:39.344Z,6.30
2023-03-01T04:34:27.986Z,6.40
2023-03-01T04:37:13.659Z,6.50
2023-03-01T04:40:00.113Z,6.50
2023-03-01T04:42:45.726Z,6.60
2023-03-01T04:45:32.738Z,6.60
2023-03-01T04:48:18.487Z,6.60
2023-03-01T04:51:04.338Z,6.70
2023-03-01T04:53:51.378Z,6.50
2023-03-01T04:56:37.067Z,6.50
2023-03-01T04:59:25.419Z,6.50
2023-03-01T05:02:11.909Z,6.50
2023-03-01T05:04:58.585Z,6.50
2023-03-01T05:07:46.002Z,6.70
2023-03-01T05:10:37.651Z,6.80
2023-03-01T05:13:23.696Z,6.50
2023-03-01T05:16:12.414Z,6.40
2023-03-01T05:18:58.914Z,6.60
2023-03-01T05:22:03.280Z,6.80
2023-03-01T05:24:48.713Z,6.00
2023-03-01T05:27:34.433Z,6.90
2023-03-01T05:30:20.297Z,7.00
2023-03-01T05:33:05.539Z,6.90
2023-03-01T05:35:52.966Z,7.00
2023-03-01T05:38:39.328Z,6.90
2023-03-01T05:41:25.787Z,6.90
2023-03-01T05:44:13.264Z,7.00
2023-03-01T05:46:59.228Z,7.10
2023-03-01T05:49:44.921Z,7.00
2023-03-01T05:52:30.508Z,8.10
2023-03-01T05:55:22.844Z,7.00
2023-03-01T05:58:10.740Z,5.70
2023-03-01T06:00:57.327Z,6.90
2023-03-01T06:03:43.211Z,6.90
2023-03-01T06:06:29.748Z,5.70
2023-03-01T06:09:15.680Z,7.00
2023-03-01T06:12:01.815Z,7.00
2023-03-01T06:14:49.013Z,7.00
2023-03-01T06:17:38.815Z,5.60
2023-03-01T06:20:26.001Z,6.90
2023-03-01T06:23:11.307Z,6.80
2023-03-01T06:25:57.081Z,6.80
2023-03-01T06:28:43.093Z,6.70
2023-03-01T06:31:29.350Z,6.70
2023-03-01T06:34:18.217Z,6.80
2023-03-01T06:37:06.248Z,6.80
2023-03-01T06:39:52.156Z,6.80
2023-03-01T06:42:39.924Z,6.70
2023-03-01T06:48:38.773Z,6.70
2023-03-01T06:51:24.253Z,6.60
2023-03-01T06:54:09.648Z,6.50
2023-03-01T06:56:55.400Z,6.60
2023-03-01T06:59:42.485Z,5.30
2023-03-01T07:02:30.314Z,6.70
2023-03-01T07:05:17.818Z,6.50
2023-03-01T07:08:03.347Z,6.60
2023-03-01T07:10:50.170Z,6.50
2023-03-01T07:13:37.217Z,6.80
2023-03-01T07:16:22.822Z,7.00
2023-03-01T07:19:09.230Z,7.20
2023-03-01T07:21:57.774Z,6.50
2023-03-01T07:24:43.806Z,7.30
2023-03-01T07:27:29.415Z,6.80
2023-03-01T07:30:15.240Z,6.50
2023-03-01T07:33:01.386Z,7.40
2023-03-01T07:35:47.712Z,6.50
2023-03-01T07:38:34.104Z,7.60
2023-03-01T07:41:19.872Z,7.00
2023-03-01T07:44:08.301Z,8.30
2023-03-01T07:46:57.665Z,8.50
2023-03-01T07:49:43.338Z,7.90
2023-03-01T07:52:29.291Z,8.20
2023-03-01T07:55:15.527Z,8.10
2023-03-01T07:58:01.527Z,9.60
2023-03-01T08:00:48.154Z,8.70
2023-03-01T08:03:35.794Z,8.80
2023-03-01T08:06:21.904Z,8.70
2023-03-01T08:09:17.182Z,6.60
2023-03-01T08:12:28.190Z,10.70
2023-03-01T08:15:16.340Z,8.90
2023-03-01T08:18:07.764Z,7.00
2023-03-01T08:21:14.660Z,8.70
2023-03-01T08:24:07.171Z,8.60
2023-03-01T08:32:53.099Z,7.20
2023-03-01T08:35:39.565Z,8.00
2023-03-01T08:38:25.803Z,8.40
2023-03-01T08:41:13.033Z,8.50
2023-03-01T08:44:02.885Z,8.50
2023-03-01T08:46:51.354Z,8.60
2023-03-01T08:49:37.575Z,8.60
2023-03-01T08:52:24.246Z,8.50
2023-03-01T08:55:13.612Z,8.60
2023-03-01T08:58:01.789Z,7.50
2023-03-01T09:00:47.606Z,8.60
2023-03-01T09:03:36.694Z,8.90
2023-03-01T09:06:33.117Z,10.30
2023-03-01T09:09:20.489Z,8.50
2023-03-01T09:12:09.642Z,10.90
2023-03-01T09:14:56.049Z,9.60
2023-03-01T09:17:42.489Z,9.40
2023-03-01T09:20:28.984Z,9.20
2023-03-01T09:23:22.662Z,9.20
2023-03-01T09:26:10.928Z,7.70
2023-03-01T09:28:59.572Z,9.00
2023-03-01T09:31:46.114Z,9.00
2023-03-01T09:34:32.603Z,8.90
2023-03-01T09:37:20.330Z,9.10
2023-03-01T09:40:07.662Z,7.40
2023-03-01T09:43:17.156Z,9.20
2023-03-01T09:46:08.400Z,9.50
2023-03-01T09:49:02.169Z,9.60
2023-03-01T09:51:55.352Z,9.80
2023-03-01T09:54:41.023Z,9.60
2023-03-01T09:57:34.268Z,9.50
2023-03-01T10:00:20.037Z,9.60
2023-03-01T10:03:25.953Z,9.40
2023-03-01T10:06:27.550Z,9.60
2023-03-01T10:09:20.636Z,9.40
2023-03-01T10:12:11.017Z,9.60
2023-03-01T10:14:56.783Z,9.30
2023-03-01T10:17:47.961Z,9.60
2023-03-01T10:20:53.334Z,7.70
2023-03-01T10:23:39.805Z,9.60
2023-03-01T10:26:45.637Z,9.10
2023-03-01T10:29:33.790Z,9.90
2023-03-01T10:32:20.211Z,9.80
2023-03-01T10:35:24.024Z,9.30
2023-03-01T10:38:11.258Z,9.80
2023-03-01T10:41:07.537Z,10.80
2023-03-01T10:44:01.736Z,10.10
2023-03-01T10:47:00.118Z,8.50
2023-03-01T10:49:59.722Z,10.20
2023-03-01T10:52:56.890Z,10.10
2023-03-01T10:55:43.317Z,9.30
2023-03-01T10:58:31.149Z,10.40
2023-03-01T11:01:21.111Z,10.60
2023-03-01T11:04:07.339Z,10.30
2023-03-01T11:06:59.564Z,9.00
2023-03-01T11:09:46.838Z,10.60
2023-03-01T11:12:35.433Z,10.60
2023-03-01T11:15:32.510Z,9.40
2023-03-01T11:18:34.030Z,11.60
2023-03-01T11:22:01.252Z,10.70
2023-03-01T11:25:09.556Z,10.50
2023-03-01T11:28:05.607Z,10.80
2023-03-01T11:31:08.144Z,8.90
2023-03-01T11:34:08.719Z,9.90
2023-03-01T11:37:28.587Z,10.90
2023-03-01T11:40:34.429Z,8.90
2023-03-01T11:43:22.200Z,11.10
2023-03-01T11:46:33.744Z,10.30
2023-03-01T11:49:23.853Z,11.60
2023-03-01T11:52:39.664Z,10.70
2023-03-01T11:55:49.994Z,8.80
2023-03-01T11:59:03.776Z,9.40
2023-03-01T12:08:47.676Z,9.10
2023-03-01T12:12:25.227Z,9.00
2023-03-01T12:18:51.687Z,11.00
2023-03-01T12:31:31.271Z,9.40
2023-03-01T12:39:13.941Z,9.10
2023-03-01T12:42:33.273Z,9.10
2023-03-01T12:45:40.989Z,8.50
2023-03-01T12:52:40.599Z,7.00
2023-03-01T12:58:52.483Z,5.50
2023-03-01T13:01:48.879Z,5.20
2023-03-01T13:04:52.909Z,6.80
2023-03-01T13:08:17.623Z,7.40
2023-03-01T13:11:05.666Z,6.00
2023-03-01T13:13:55.798Z,8.00
2023-03-01T13:16:48.049Z,8.20
2023-03-01T13:19:37.137Z,8.30
2023-03-01T13:22:39.729Z,8.30
2023-03-01T13:25:37.641Z,8.20
2023-03-01T13:28:33.405Z,8.00
2023-03-01T13:31:19.920Z,9.10
2023-03-01T13:34:08.637Z,8.10
2023-03-01T13:37:09.628Z,8.20
2023-03-01T13:40:03.725Z,7.70
2023-03-01T13:43:04.832Z,6.70
2023-03-01T13:45:54.632Z,8.10
2023-03-01T13:48:40.939Z,8.10
2023-03-01T13:51:35.617Z,7.50
2023-03-01T13:54:37.477Z,7.80
2023-03-01T13:57:26.295Z,7.80
2023-03-01T14:00:29.270Z,7.30
2023-03-01T14:03:24.902Z,6.70
2023-03-01T14:06:51.241Z,7.90
2023-03-01T14:09:41.280Z,8.50
2023-03-01T14:13:01.296Z,7.70
2023-03-01T14:16:12.768Z,7.60
2023-03-01T14:19:34.692Z,6.90
2023-03-01T14:22:26.282Z,7.00
2023-03-01T14:25:35.598Z,7.60
2023-03-01T14:28:33.429Z,7.70
2023-03-01T14:31:33.026Z,7.50
2023-03-01T14:34:23.920Z,7.50
2023-03-01T14:37:20.007Z,7.20
2023-03-01T14:40:22.459Z,7.40
2023-03-01T14:43:14.713Z,7.40
2023-03-01T14:49:31.494Z,7.60
2023-03-01T14:52:27.220Z,7.70
2023-03-01T14:55:21.674Z,7.70
2023-03-01T14:58:10.818Z,9.10
2023-03-01T15:00:58.588Z,7.40
2023-03-01T15:03:45.220Z,7.20
2023-03-01T15:06:31.922Z,7.50
2023-03-01T15:09:18.558Z,7.70
2023-03-01T15:12:23.933Z,7.80
2023-03-01T15:15:31.045Z,7.80
2023-03-01T15:18:18.338Z,7.90
2023-03-01T15:21:10.589Z,7.80
2023-03-01T15:23:58.693Z,7.80
2023-03-01T15:26:47.872Z,7.80
2023-03-01T15:29:34.631Z,7.20
2023-03-01T15:32:29.616Z,6.70
2023-03-01T15:35:41.896Z,7.30
2023-03-01T15:38:31.409Z,7.00
2023-03-01T15:41:26.595Z,7.30
2023-03-01T15:44:19.505Z,6.40
2023-03-01T15:47:09.132Z,6.00
2023-03-01T15:49:56.105Z,6.20
2023-03-01T15:52:43.673Z,6.60
2023-03-01T15:55:31.892Z,6.00
2023-03-01T15:58:23.032Z,5.70
2023-03-01T16:01:13.956Z,6.20
2023-03-01T16:03:59.834Z,6.30
2023-03-01T16:06:46.327Z,6.50
2023-03-01T16:09:32.052Z,7.70
2023-03-01T16:12:17.660Z,6.50
2023-03-01T16:15:04.041Z,6.00
2023-03-01T16:17:50.067Z,5.70
2023-03-01T16:20:41.237Z,5.80
2023-03-01T16:23:27.307Z,5.50
2023-03-01T16:26:14.243Z,5.40
2023-03-01T16:29:00.049Z,5.30
2023-03-01T16:31:46.064Z,5.60
2023-03-01T16:34:32.178Z,5.40
2023-03-01T16:37:17.829Z,5.60
2023-03-01T16:40:05.487Z,5.80
2023-03-01T16:42:51.467Z,6.00
2023-03-01T16:45:37.821Z,6.40
2023-03-01T16:48:24.302Z,6.20
2023-03-01T16:51:17.036Z,5.90
2023-03-01T16:54:03.794Z,5.30
2023-03-01T16:56:49.958Z,6.50
2023-03-01T16:59:35.641Z,6.30
2023-03-01T17:02:22.241Z,5.80
2023-03-01T17:05:08.678Z,6.00
2023-03-01T17:07:56.669Z,5.80
2023-03-01T17:10:45.328Z,6.20
2023-03-01T17:13:31.232Z,6.40
2023-03-01T17:16:18.169Z,6.60
2023-03-01T17:19:04.320Z,6.50
2023-03-01T17:21:50.261Z,6.60
2023-03-01T17:24:38.613Z,6.60
2023-03-01T17:27:25.484Z,6.70
2023-03-01T17:30:12.791Z,6.90
2023-03-01T17:32:58.932Z,6.60
2023-03-01T17:35:47.737Z,6.50
2023-03-01T17:38:33.530Z,6.40
2023-03-01T17:41:20.932Z,6.40
2023-03-01T17:44:07.550Z,6.60
2023-03-01T17:46:53.610Z,6.10
2023-03-01T17:49:39.445Z,6.70
2023-03-01T17:52:25.582Z,6.90
2023-03-01T17:55:14.464Z,6.90
2023-03-01T17:58:00.126Z,6.60
2023-03-01T18:00:46.005Z,6.70
2023-03-01T18:03:31.925Z,6.00
2023-03-01T18:06:19.547Z,6.50
2023-03-01T18:09:05.754Z,6.50
2023-03-01T18:11:54.076Z,6.30
2023-03-01T18:14:40.352Z,6.40
2023-03-01T18:17:26.920Z,6.60
2023-03-01T18:20:13.537Z,6.20
2023-03-01T18:22:59.400Z,5.70
2023-03-01T18:25:47.900Z,5.40
2023-03-01T18:28:34.171Z,5.30
2023-03-01T18:31:22.706Z,4.90
2023-03-01T18:34:13.313Z,5.20
2023-03-01T18:37:09.477Z,5.20
2023-03-01T18:39:56.128Z,5.50
2023-03-01T18:42:41.882Z,5.60
2023-03-01T18:45:27.980Z,5.70
2023-03-01T18:48:17.177Z,5.10
2023-03-01T18:51:13.961Z,3.40
2023-03-01T18:54:00.397Z,4.80
2023-03-01T18:56:46.514Z,3.80
2023-03-01T18:59:32.867Z,5.30
2023-03-01T19:02:19.015Z,3.80
2023-03-01T19:05:05.335Z,5.40
2023-03-01T19:07:52.421Z,5.80
2023-03-01T19:10:38.595Z,5.90
2023-03-01T19:13:26.014Z,6.20
2023-03-01T19:16:14.175Z,6.30
2023-03-01T19:19:02.164Z,6.10
2023-03-01T19:21:59.482Z,5.80
2023-03-01T19:24:51.199Z,6.10
2023-03-01T19:27:37.737Z,6.00
2023-03-01T19:30:24.548Z,6.20
2023-03-01T19:33:11.208Z,6.10
2023-03-01T19:35:57.569Z,6.00
2023-03-01T19:38:43.639Z,6.10
2023-03-01T19:41:29.820Z,6.10
2023-03-01T19:44:16.121Z,6.20
2023-03-01T19:47:02.319Z,6.00
2023-03-01T19:49:48.449Z,5.90
2023-03-01T19:52:34.659Z,5.60
2023-03-01T19:55:20.661Z,5.90
2023-03-01T19:58:10.404Z,6.00
2023-03-01T20:01:01.174Z,5.90
2023-03-01T20:03:47.752Z,5.80
2023-03-01T20:06:34.078Z,5.80
2023-03-01T20:09:22.053Z,5.70
2023-03-01T20:12:08.205Z,5.50
2023-03-01T20:14:55.611Z,5.50
2023-03-01T20:17:41.527Z,5.40
2023-03-01T20:20:27.519Z,5.50
2023-03-01T20:23:13.489Z,5.50
2023-03-01T20:26:04.024Z,5.40
2023-03-01T20:28:51.482Z,5.50
2023-03-01T20:31:39.933Z,5.20
2023-03-01T20:34:27.231Z,5.10
2023-03-01T20:37:14.033Z,5.00
2023-03-01T20:40:04.470Z,5.20
2023-03-01T20:42:50.728Z,5.10
2023-03-01T20:45:38.127Z,4.90
2023-03-01T20:48:24.459Z,5.00
2023-03-01T20:51:11.218Z,4.90
2023-03-01T20:53:57.400Z,4.80
2023-03-01T20:56:43.598Z,4.90
2023-03-01T20:59:29.625Z,5.00
2023-03-01T21:02:15.735Z,5.00
2023-03-01T21:05:01.822Z,5.10
2023-03-01T21:07:47.395Z,5.20
2023-03-01T21:10:33.512Z,5.10
2023-03-01T21:13:19.033Z,5.00
2023-03-01T21:16:04.974Z,4.90
2023-03-01T21:18:51.281Z,4.90
2023-03-01T21:21:37.305Z,4.70
2023-03-01T21:24:23.110Z,4.60
2023-03-01T21:27:09.986Z,4.20
2023-03-01T21:29:56.132Z,4.90
2023-03-01T21:32:42.769Z,4.90
2023-03-01T21:35:28.787Z,6.50
2023-03-01T21:38:14.623Z,5.10
2023-03-01T21:41:04.061Z,5.00
2023-03-01T21:43:49.967Z,5.00
2023-03-01T21:46:37.467Z,5.00
2023-03-01T21:49:23.727Z,5.00
2023-03-01T21:52:17.547Z,5.00
2023-03-01T21:55:04.423Z,5.30
2023-03-01T21:57:50.573Z,5.70
2023-03-01T22:00:39.749Z,5.60
2023-03-01T22:03:26.181Z,5.90
2023-03-01T22:06:19.770Z,6.10
2023-03-01T22:09:08.799Z,5.80
2023-03-01T22:11:59.039Z,5.30
2023-03-01T22:14:44.755Z,5.20
2023-03-01T22:17:30.451Z,5.30
2023-03-01T22:20:16.674Z,5.00
2023-03-01T22:23:02.684Z,4.90
2023-03-01T22:25:48.659Z,4.90
2023-03-01T22:28:34.442Z,5.20
2023-03-01T22:31:19.990Z,5.20
2023-03-01T22:34:06.090Z,5.20
2023-03-01T22:36:51.893Z,5.30
2023-03-01T22:39:37.463Z,5.40
2023-03-01T22:42:23.259Z,5.20
2023-03-01T22:45:08.990Z,5.10
2023-03-01T22:47:56.689Z,5.10
2023-03-01T22:50:43.636Z,5.20
2023-03-01T22:53:29.290Z,5.40
2023-03-01T22:56:16.061Z,5.50
2023-03-01T22:59:02.963Z,5.70
2023-03-01T23:01:49.195Z,5.90
2023-03-01T23:04:34.897Z,6.00
2023-03-01T23:07:20.529Z,5.70
2023-03-01T23:10:07.301Z,5.70
2023-03-01T23:12:56.725Z,5.60
2023-03-01T23:15:44.874Z,5.50
2023-03-01T23:18:30.634Z,5.50
2023-03-01T23:21:17.657Z,5.40
2023-03-01T23:24:03.568Z,5.30
2023-03-01T23:26:55.811Z,5.30
2023-03-01T23:29:42.606Z,5.40
2023-03-01T23:32:28.501Z,5.50
2023-03-01T23:35:14.514Z,5.50
2023-03-01T23:37:59.966Z,5.40
2023-03-01T23:40:46.139Z,5.60
2023-03-01T23:43:33.216Z,5.40
2023-03-01T23:46:20.149Z,5.60
2023-03-01T23:49:05.945Z,5.80
2023-03-01T23:51:51.835Z,5.80
2023-03-01T23:54:37.489Z,5.80
2023-03-01T23:57:23.054Z,5.80
